• Join FlightAware (Why Join?)
  • Login
  • US Flag 
06:46PM EDT


 

Airport Tracker/Info


-or-


 

Live Flight TrackerFlight Track Log ✈ N143DE ✈ 10-May-2013 ✈ KGPT - KAPF

Flight Track Log - Related Links

Times and Time Zones

All times are in EDT time to prevent confusion due to time zone crossing. See the N143DE flight status page for this flight to view local times or setup timezone preferences in your user account.

Time Position Orientation Groundspeed Altitude Reporting Facility
EDT Latitude Longitude Course Direction KTS MPH feet Rate Location/Type
03:10PM 30.3925 -89.0561 64° Northeast 136 157 25,000  Level Houston Center
03:11PM 30.3925 -89.0014 90° East 184 212 2,600 -10,080 Descending Houston Center
03:12PM 30.4186 -88.9344 66° East 211 243 4,000 1,560 Climbing Houston Center
03:13PM 30.4419 -88.8692 67° East 219 252 5,900 1,920 Climbing Houston Center
03:14PM 30.4686 -88.8175 59° Northeast 205 236 8,000 1,860 Climbing Houston Center
03:15PM 30.5568 -88.6952 64° Northeast  Level FlightAware Approximate
03:15PM 30.4986 -88.7656 56° Northeast 196 226 9,800  Level Houston Center
03:16PM 30.5294 -88.7128 56° Northeast 196 226 11,400 1,380 Climbing Houston Center
03:17PM 30.5664 -88.6433 58° Northeast 204 235 12,700 1,020 Climbing Houston Center
03:18PM 30.6036 -88.5761 57° Northeast 235 270 13,600 1,380 Climbing Houston Center
03:19PM 30.6358 -88.5175 57° Northeast 223 257 15,600 1,740 Climbing Houston Center
03:20PM 30.6633 -88.4656 58° Northeast 196 226 17,200 1,320 Climbing Houston Center
03:21PM 30.6928 -88.4128 57° Northeast 194 223 18,400 1,080 Climbing Houston Center
03:22PM 30.7222 -88.3575 58° Northeast 199 229 19,500 960 Climbing Houston Center
03:23PM 30.7331 -88.2706 82° East 229 264 20,500 900 Climbing Houston Center
03:24PM 30.7406 -88.1939 83° East 239 275 21,400 780 Climbing Houston Center
03:25PM 30.7456 -88.1175 86° East 241 277 22,200 780 Climbing Houston Center
03:26PM 30.7489 -88.0392 87° East 244 281 23,100 720 Climbing Houston Center
03:27PM 30.7525 -87.9594 87° East 249 287 23,800 660 Climbing Houston Center
03:28PM 30.7558 -87.8719 87° East 243 280 24,400 600 Climbing Jacksonville Center
03:29PM 30.7608 -87.7947 86° East 255 293 25,000 300 Climbing Jacksonville Center
03:30PM 30.7661 -87.7081 86° East 260 299 25,100  Climbing Jacksonville Center
03:31PM 30.7719 -87.6142 86° East 271 312 25,100  Level Jacksonville Center
03:32PM 30.7775 -87.5178 86° East 287 330 25,100  Level Jacksonville Center
03:33PM 30.7831 -87.4236 86° East 287 330 25,100  Level Jacksonville Center
03:34PM 30.7906 -87.3297 85° East 287 330 25,100  Level Jacksonville Center
03:35PM 30.7958 -87.2333 86° East 287 330 25,100  Level Jacksonville Center
03:36PM 30.8011 -87.1392 86° East 287 330 25,100  Level Jacksonville Center
03:37PM 30.8064 -87.0453 86° East 287 330 25,100  Level Jacksonville Center
03:38PM 30.8136 -86.9486 85° East 292 336 25,100  Level Jacksonville Center
03:39PM 30.8039 -86.8614 97° East 286 329 25,100  Level Jacksonville Center
03:40PM 30.7708 -86.7778 115° Southeast 273 314 25,100  Level Jacksonville Center
03:41PM 30.7403 -86.6894 112° Southeast 278 320 25,100  Level Jacksonville Center
03:42PM 30.7094 -86.6036 113° Southeast 278 320 25,100  Level Jacksonville Center
03:43PM 30.6783 -86.5203 113° Southeast 278 320 25,100  Level Jacksonville Center
03:44PM 30.6494 -86.4347 111° Southeast 278 320 25,100  Level Jacksonville Center
03:45PM 30.6183 -86.3514 113° Southeast 278 320 25,100  Level Jacksonville Center
03:46PM 30.5914 -86.2661 110° East 278 320 25,100  Level Jacksonville Center
03:47PM 30.5581 -86.1831 115° Southeast 278 320 25,100  Level Jacksonville Center
03:48PM 30.5267 -86.1000 114° Southeast 278 320 25,100  Level Jacksonville Center
03:49PM 30.4956 -86.0169 113° Southeast 278 320 25,100  Level Jacksonville Center
03:50PM 30.4600 -85.9339 116° Southeast 278 320 25,100  Level Jacksonville Center
03:51PM 30.4242 -85.8556 118° Southeast 278 320 25,100  Level Jacksonville Center
03:52PM 30.3864 -85.7750 119° Southeast 283 326 25,100  Level Jacksonville Center
03:53PM 30.3506 -85.6992 119° Southeast 283 326 25,100  Level Jacksonville Center
03:54PM 30.3125 -85.6236 120° Southeast 275 316 25,100  Level Jacksonville Center
03:55PM 30.2575 -85.5569 134° Southeast 261 300 25,100  Level Jacksonville Center
03:56PM 30.2067 -85.4956 134° Southeast 261 300 25,100  Level Jacksonville Center
03:57PM 30.1533 -85.4364 136° Southeast 262 302 25,100  Level Jacksonville Center
03:58PM 30.1086 -85.3800 133° Southeast 262 302 25,100  Level Jacksonville Center
03:59PM 30.0597 -85.3142 131° Southeast 262 302 25,100  Level Jacksonville Center
04:00PM 30.0089 -85.2503 133° Southeast 262 302 25,100  Level Jacksonville Center
04:01PM 29.9556 -85.1867 134° Southeast 267 307 25,100  Level Jacksonville Center
04:02PM 29.9047 -85.1186 131° Southeast 267 307 25,100  Level Jacksonville Center
04:03PM 29.8517 -85.0550 134° Southeast 272 313 25,100  Level Jacksonville Center
04:04PM 29.8006 -84.9892 132° Southeast 272 313 25,100  Level Jacksonville Center
04:05PM 29.7492 -84.9258 133° Southeast 272 313 25,100  Level Jacksonville Center
04:06PM 29.6961 -84.8603 133° Southeast 278 320 25,100  Level Jacksonville Center
04:07PM 29.6447 -84.7947 132° Southeast 273 314 25,100  Level Jacksonville Center
04:08PM 29.5936 -84.7317 133° Southeast 273 314 25,100  Level Jacksonville Center
04:09PM 29.5422 -84.6661 132° Southeast 273 314 25,100  Level Jacksonville Center
04:10PM 29.4889 -84.6033 134° Southeast 273 314 25,100  Level Jacksonville Center
04:11PM 29.4375 -84.5356 131° Southeast 278 320 25,100  Level Jacksonville Center
04:12PM 29.3861 -84.4703 132° Southeast 278 320 25,100  Level Jacksonville Center
04:13PM 29.3328 -84.4053 133° Southeast 278 320 25,100  Level Jacksonville Center
04:14PM 29.2792 -84.3425 134° Southeast 278 320 25,100  Level Jacksonville Center
04:15PM 29.2278 -84.2775 132° Southeast 272 313 25,100  Level Jacksonville Center
04:16PM 29.1761 -84.2125 132° Southeast 272 313 25,100  Level Jacksonville Center
04:17PM 29.1206 -84.1500 135° Southeast 277 319 25,100  Level Jacksonville Center
04:18PM 29.0689 -84.0875 133° Southeast 277 319 25,100  Level Jacksonville Center
04:19PM 29.0194 -84.0228 131° Southeast 277 319 25,100  Level Jacksonville Center
04:20PM 28.9678 -83.9606 133° Southeast 277 319 25,100  Level Jacksonville Center
04:21PM 28.9161 -83.8958 132° Southeast 277 319 25,100  Level Jacksonville Center
04:22PM 28.8644 -83.8361 135° Southeast 277 319 25,100  Level Jacksonville Center
04:23PM 28.8128 -83.7717 132° Southeast 277 319 25,100  Level Jacksonville Center
04:24PM 28.7608 -83.7097 134° Southeast 277 319 25,100  Level Jacksonville Center
04:25PM 28.7111 -83.6500 134° Southeast 277 319 25,100  Level Jacksonville Center
04:26PM 28.6572 -83.5858 134° Southeast 272 313 25,100  Level Jacksonville Center
04:27PM 28.6053 -83.5217 133° Southeast 278 320 25,100  Level Jacksonville Center
04:28PM 28.5556 -83.4597 132° Southeast 270 311 25,100  Level Jacksonville Center
04:29PM 28.5036 -83.3981 134° Southeast 270 311 25,100  Level Jacksonville Center
04:30PM 28.4539 -83.3364 133° Southeast 270 311 25,100  Level Jacksonville Center
04:31PM 28.4019 -83.2819 137° Southeast 277 319 25,100  Level Jacksonville Center
04:32PM 28.3519 -83.2181 132° Southeast 277 319 25,100  Level Jacksonville Center
04:33PM 28.3000 -83.1589 135° Southeast 277 319 25,100  Level Jacksonville Center
04:34PM 28.2706 -83.1186 130° Southeast 278 320 25,100  Level Miami Center
04:35PM 28.2147 -83.0567 136° Southeast 278 320 25,100  Level Miami Center
04:36PM 28.1633 -82.9950 133° Southeast 278 320 25,100  Level Miami Center
04:37PM 28.1117 -82.9311 133° Southeast 273 314 25,100  Level Miami Center
04:38PM 28.0600 -82.8697 134° Southeast 273 314 25,100  Level Miami Center
04:39PM 28.0125 -82.8083 131° Southeast 273 314 25,100  Level Miami Center
04:40PM 27.9608 -82.7492 135° Southeast 273 314 25,100  Level Miami Center
04:41PM 27.9028 -82.6853 136° Southeast 273 314 25,100  Level Miami Center
04:42PM 27.8336 -82.6958 188° South 234 269 25,200 -60 Climbing Miami Center
04:43PM 27.7817 -82.7400 217° Southwest 214 246 25,000 -720 Descending Miami Center
04:44PM 27.7211 -82.7931 218° Southwest 240 276 23,800 -1,080 Descending Miami Center
04:45PM 27.6653 -82.8347 213° Southwest 264 304 22,900 -1,080 Descending Miami Center
04:46PM 27.6003 -82.8897 217° Southwest 270 311 21,700 -1,200 Descending Miami Center
04:47PM 27.5303 -82.9189 200° South 270 311 20,500 -1,140 Descending Miami Center
04:48PM 27.4589 -82.8778 153° Southeast 250 288 19,500 -960 Descending Miami Center
04:49PM 27.3958 -82.8394 152° Southeast 271 312 18,600 -900 Descending Miami Center
04:50PM 27.3208 -82.7911 150° Southeast 277 319 17,700 -900 Descending Miami Center
04:51PM 27.2536 -82.7503 152° Southeast 277 319 16,900 -900 Descending Miami Center
04:52PM 27.1842 -82.7094 152° Southeast 277 319 16,000 -900 Descending Miami Center
04:53PM 27.1172 -82.6664 150° Southeast 277 319 15,100 -900 Descending Miami Center
04:54PM 27.0478 -82.6256 152° Southeast 277 319 14,300 -900 Descending Miami Center
04:55PM 26.9847 -82.5853 150° Southeast 277 319 13,400 -900 Descending Miami Center
04:56PM 26.9175 -82.5447 152° Southeast 277 319 12,600 -840 Descending Miami Center
04:57PM 26.8564 -82.5069 151° Southeast 267 307 11,800 -660 Descending Miami Center
04:58PM 26.7869 -82.4639 151° Southeast 267 307 11,300 -540 Descending Miami Center
04:59PM 26.7239 -82.4236 150° Southeast 272 313 10,800 -600 Descending Miami Center
05:00PM 26.6586 -82.3858 153° Southeast 272 313 10,100 -720 Descending Miami Center
05:01PM 26.5933 -82.3433 150° Southeast 272 313 9,400 -660 Descending Miami Center
05:02PM 26.5347 -82.2942 143° Southeast 265 305 8,800 -600 Descending Miami Center
05:03PM 26.4736 -82.2494 147° Southeast 265 305 8,200 -600 Descending Miami Center
05:04PM 26.4192 -82.2031 143° Southeast 271 312 7,600 -600 Descending Miami Center
05:05PM 26.3686 -82.1522 138° Southeast 266 306 7,000 -600 Descending Miami Center
05:07PM 26.2959 -82.0253 130° Southeast  Level Estimated
05:14PM 26.1524 -81.7756 130° Southeast  Level Estimated
05:15PM 26.1524 -81.7756 130° Southeast  Level Estimated
05:16PM 26.1524 -81.7756 130° Southeast  Level Estimated
05:17PM 26.1524 -81.7756 130° Southeast  Level Estimated
05:18PM 26.1524 -81.7756 130° Southeast  Level Estimated
05:19PM 26.1524 -81.7756 130° Southeast  Level Estimated
05:20PM 26.1524 -81.7756 130° Southeast  Level Estimated
05:21PM 26.1524 -81.7756 130° Southeast  Level Estimated